Time;durP1;ratioP1;P1;durP2;ratioP2;P2;SDS_P1;SDS_P2;PMS_P1;PMS_P2;Temp;Humidity;BMP_temperature;BMP_pressure;BME280_temperature;BME280_humidity;BME280_pressure;Samples;Min_cycle;Max_cycle;Signal;HPM_P1;HPM_P2
2024/03/05 00:00:30;;;;;;;16.05;7.82;;;;;;;7.61;100.00;99233.44;6294741;28;20055;-74
2024/03/05 00:03:30;;;;;;;17.20;8.05;;;;;;;7.66;100.00;99226.19;6296215;28;20149;-74
2024/03/05 00:06:32;;;;;;;11.63;7.47;;;;;;;7.67;100.00;99231.28;6300396;28;20480;-73
2024/03/05 00:09:34;;;;;;;16.67;8.65;;;;;;;7.74;100.00;99228.28;6299479;28;20079;-73
2024/03/05 00:12:35;;;;;;;13.55;7.97;;;;;;;7.73;100.00;99221.44;6300407;28;20384;-68
2024/03/05 00:15:39;;;;;;;12.80;7.93;;;;;;;7.73;100.00;99229.25;6300472;28;20049;-67
2024/03/05 00:18:40;;;;;;;22.63;8.07;;;;;;;7.67;100.00;99233.03;6300264;28;20068;-67
2024/03/05 00:21:42;;;;;;;21.00;8.07;;;;;;;7.60;100.00;99230.00;6300552;28;20141;-68
2024/03/05 00:24:43;;;;;;;14.30;7.90;;;;;;;7.56;100.00;99236.31;6299084;28;20137;-68
2024/03/05 00:27:48;;;;;;;16.25;8.73;;;;;;;7.54;100.00;99237.34;6300386;28;20048;-73
2024/03/05 00:30:48;;;;;;;13.90;8.15;;;;;;;7.51;100.00;99232.31;6300069;28;20048;-73
2024/03/05 00:33:49;;;;;;;14.90;8.15;;;;;;;7.49;100.00;99237.59;6299756;28;20060;-73
2024/03/05 00:36:50;;;;;;;19.27;8.48;;;;;;;7.51;100.00;99233.16;6298565;28;20095;-73
2024/03/05 00:39:51;;;;;;;15.50;8.15;;;;;;;7.43;100.00;99225.84;6276448;28;20049;-73
2024/03/05 00:42:52;;;;;;;22.75;8.70;;;;;;;7.50;100.00;99235.84;6273927;28;20053;-73
2024/03/05 00:45:53;;;;;;;16.08;7.57;;;;;;;7.43;100.00;99236.22;6273589;28;20063;-68
2024/03/05 00:48:58;;;;;;;12.25;7.93;;;;;;;7.44;100.00;99234.47;6274856;28;20055;-68
2024/03/05 00:51:59;;;;;;;18.73;8.48;;;;;;;7.40;100.00;99228.63;6274755;28;20056;-68
2024/03/05 00:55:00;;;;;;;15.95;8.18;;;;;;;7.43;100.00;99232.78;6273546;28;20060;-67
2024/03/05 00:58:07;;;;;;;14.52;8.07;;;;;;;7.35;100.00;99222.88;6289642;28;20060;-74
2024/03/05 01:01:08;;;;;;;15.85;7.75;;;;;;;7.38;100.00;99227.88;6289739;28;20500;-74
2024/03/05 01:04:10;;;;;;;12.15;8.10;;;;;;;7.32;100.00;99220.47;6289712;28;20136;-73
2024/03/05 01:07:11;;;;;;;16.40;8.00;;;;;;;7.25;100.00;99225.19;6289664;28;20045;-74
2024/03/05 01:10:12;;;;;;;17.63;8.27;;;;;;;7.25;100.00;99235.59;6289447;28;20144;-73
2024/03/05 01:13:13;;;;;;;14.85;7.68;;;;;;;7.23;100.00;99229.66;6289475;28;20136;-73
2024/03/05 01:16:14;;;;;;;18.38;8.38;;;;;;;7.25;100.00;99232.97;6276055;28;20045;-73
2024/03/05 01:19:15;;;;;;;15.45;7.28;;;;;;;7.17;100.00;99230.03;6292740;28;20499;-73
2024/03/05 01:22:16;;;;;;;13.90;7.43;;;;;;;7.16;100.00;99228.34;6298208;28;20055;-73
2024/03/05 01:25:19;;;;;;;16.90;8.27;;;;;;;7.20;100.00;99235.00;6297962;28;20045;-73
2024/03/05 01:28:22;;;;;;;10.68;6.90;;;;;;;7.16;100.00;99230.09;6298617;28;20123;-68
2024/03/05 01:31:23;;;;;;;16.27;7.93;;;;;;;7.11;100.00;99235.56;6298340;28;20444;-68
2024/03/05 01:34:24;;;;;;;13.23;7.63;;;;;;;7.10;100.00;99236.47;6298375;28;20044;-68
2024/03/05 01:37:25;;;;;;;15.45;7.93;;;;;;;7.01;100.00;99232.69;6298336;28;20060;-68
2024/03/05 01:40:26;;;;;;;14.63;7.95;;;;;;;7.04;100.00;99240.31;6296959;28;20078;-68
2024/03/05 01:43:27;;;;;;;14.85;6.95;;;;;;;6.99;100.00;99242.31;6298328;28;20056;-68
2024/03/05 01:46:30;;;;;;;14.43;7.47;;;;;;;6.95;100.00;99238.22;6298199;28;20064;-68
2024/03/05 01:49:31;;;;;;;;;;;;;;;6.93;100.00;99247.03;6298600;28;20049;-68
2024/03/05 01:52:32;;;;;;;13.68;7.32;;;;;;;6.87;100.00;99245.63;6296721;28;20009;-68
2024/03/05 01:55:37;;;;;;;15.52;7.65;;;;;;;6.79;100.00;99253.03;6298128;28;20056;-68
2024/03/05 01:58:40;;;;;;;12.13;7.22;;;;;;;6.74;100.00;99255.06;6296583;28;20060;-68
2024/03/05 02:01:43;;;;;;;17.10;8.00;;;;;;;6.67;100.00;99259.75;6297972;28;20079;-68
2024/03/05 02:04:45;;;;;;;12.55;7.65;;;;;;;6.68;100.00;99260.59;6296440;28;20071;-67
2024/03/05 02:07:52;;;;;;;13.93;7.40;;;;;;;6.68;100.00;99263.19;6297979;28;20469;-68
2024/03/05 02:10:55;;;;;;;12.45;7.57;;;;;;;6.69;100.00;99263.09;6297438;28;20412;-68
2024/03/05 02:13:56;;;;;;;11.65;6.65;;;;;;;6.66;100.00;99258.09;6296615;28;20056;-73
2024/03/05 02:16:59;;;;;;;13.27;8.00;;;;;;;6.64;100.00;99267.72;6297640;28;20059;-73
2024/03/05 02:20:05;;;;;;;12.48;7.50;;;;;;;6.61;100.00;99258.34;6273106;28;20053;-68
2024/03/05 02:23:09;;;;;;;13.18;7.50;;;;;;;6.58;100.00;99263.69;6272481;28;20044;-68
2024/03/05 02:26:10;;;;;;;16.98;7.90;;;;;;;6.64;100.00;99265.13;6286660;28;20049;-68
2024/03/05 02:29:11;;;;;;;23.25;12.20;;;;;;;6.66;100.00;99265.88;6285957;28;20045;-67
2024/03/05 02:32:12;;;;;;;26.13;12.75;;;;;;;6.72;100.00;99277.66;6296482;28;20186;-68
2024/03/05 02:35:13;;;;;;;24.27;11.50;;;;;;;6.76;100.00;99273.97;6283643;28;20135;-68
2024/03/05 02:38:14;;;;;;;21.23;11.00;;;;;;;6.77;100.00;99279.03;6290656;28;20801;-68
2024/03/05 02:41:15;;;;;;;18.38;10.50;;;;;;;6.80;100.00;99280.63;6314206;28;20052;-73
2024/03/05 02:44:18;;;;;;;19.92;10.32;;;;;;;6.79;100.00;99277.19;6321920;28;20101;-73
2024/03/05 02:47:19;;;;;;;24.35;11.73;;;;;;;6.80;100.00;99283.22;6313970;28;20475;-73
2024/03/05 02:50:20;;;;;;;21.20;9.90;;;;;;;6.79;100.00;99282.38;6322012;28;20052;-74
2024/03/05 02:53:21;;;;;;;20.92;10.70;;;;;;;6.80;100.00;99278.88;6322011;28;20048;-73
2024/03/05 02:56:22;;;;;;;25.20;10.43;;;;;;;6.83;100.00;99278.69;6300000;28;20049;-74
2024/03/05 02:59:25;;;;;;;26.80;12.23;;;;;;;6.85;100.00;99281.19;6314031;28;20059;-67
2024/03/05 03:02:28;;;;;;;28.80;14.55;;;;;;;6.81;100.00;99283.13;6316236;28;20059;-69
2024/03/05 03:05:28;;;;;;;24.83;12.95;;;;;;;6.79;100.00;99292.75;6300104;28;20392;-68
2024/03/05 03:08:30;;;;;;;28.85;13.18;;;;;;;6.78;100.00;99298.88;6297145;28;20057;-73
2024/03/05 03:11:30;;;;;;;32.17;12.50;;;;;;;6.73;100.00;99300.03;6296753;28;20429;-73
2024/03/05 03:14:31;;;;;;;16.42;9.63;;;;;;;6.66;100.00;99304.75;6311379;28;20396;-72
2024/03/05 03:17:33;;;;;;;20.45;9.15;;;;;;;6.63;100.00;99304.91;6295346;28;20052;-67
2024/03/05 03:20:36;;;;;;;24.33;10.10;;;;;;;6.55;100.00;99313.13;6314353;28;20067;-73
2024/03/05 03:23:37;;;;;;;21.85;10.05;;;;;;;6.68;100.00;99309.84;6296309;28;20446;-73
2024/03/05 03:26:38;;;;;;;23.55;9.98;;;;;;;6.66;100.00;99317.72;6315739;28;20507;-73
2024/03/05 03:29:40;;;;;;;17.40;9.30;;;;;;;6.66;100.00;99315.13;6318428;28;20048;-73
2024/03/05 03:32:41;;;;;;;14.27;9.05;;;;;;;6.66;100.00;99325.50;6316311;28;20189;-67
2024/03/05 03:35:44;;;;;;;17.85;10.35;;;;;;;6.75;100.00;99329.31;6315621;28;20044;-67
2024/03/05 03:38:45;;;;;;;17.63;9.48;;;;;;;6.78;100.00;99332.56;6321021;28;20438;-74
2024/03/05 03:41:46;;;;;;;22.33;10.65;;;;;;;6.85;100.00;99336.47;6322401;28;20052;-73
2024/03/05 03:44:51;;;;;;;21.33;10.35;;;;;;;6.93;100.00;99325.66;6312089;28;20092;-73
2024/03/05 03:47:52;;;;;;;16.02;9.15;;;;;;;7.10;100.00;99332.47;6315086;28;20052;-74
2024/03/05 03:50:52;;;;;;;21.50;10.32;;;;;;;7.10;100.00;99332.47;6304797;28;20043;-73
2024/03/05 03:53:53;;;;;;;19.65;10.70;;;;;;;7.07;100.00;99335.25;6305242;28;20051;-73
2024/03/05 03:56:55;;;;;;;14.60;9.18;;;;;;;7.03;100.00;99331.16;6301407;28;20629;-73
2024/03/05 03:59:56;;;;;;;19.98;10.10;;;;;;;6.96;100.00;99332.44;6302895;28;20049;-74
2024/03/05 04:02:58;;;;;;;23.00;9.35;;;;;;;6.98;100.00;99343.56;6304258;28;20417;-74
2024/03/05 04:06:01;;;;;;;19.42;9.40;;;;;;;6.97;100.00;99337.53;6304280;28;20051;-73
2024/03/05 04:09:03;;;;;;;17.17;9.35;;;;;;;6.95;100.00;99330.78;6307257;28;20048;-73
2024/03/05 04:12:04;;;;;;;21.25;8.13;;;;;;;6.95;100.00;99330.78;6303498;28;20062;-73
2024/03/05 04:15:07;;;;;;;15.85;9.40;;;;;;;6.90;100.00;99333.63;6309333;28;20070;-68
2024/03/05 04:18:11;;;;;;;22.95;9.82;;;;;;;6.86;100.00;99332.16;6302844;28;20484;-67
2024/03/05 04:21:11;;;;;;;16.58;8.73;;;;;;;6.83;100.00;99333.13;6315255;28;20097;-68
2024/03/05 04:24:15;;;;;;;23.63;9.52;;;;;;;6.85;100.00;99339.06;6319348;28;20049;-68
2024/03/05 04:27:18;;;;;;;19.33;9.57;;;;;;;6.84;100.00;99334.00;6300041;28;20048;-67
2024/03/05 04:30:19;;;;;;;20.35;11.20;;;;;;;6.79;100.00;99333.41;6298602;28;20159;-73
2024/03/05 04:33:20;;;;;;;22.75;13.00;;;;;;;6.76;100.00;99333.59;6302769;28;20048;-68
2024/03/05 04:36:21;;;;;;;36.50;17.65;;;;;;;6.65;100.00;99332.44;6299210;28;20063;-73
2024/03/05 04:39:22;;;;;;;29.52;15.77;;;;;;;6.73;100.00;99328.56;6310023;28;20048;-74
2024/03/05 04:42:24;;;;;;;63.00;24.95;;;;;;;6.69;100.00;99329.66;6319835;28;20109;-73
2024/03/05 04:45:25;;;;;;;48.03;19.58;;;;;;;6.72;100.00;99332.09;6312014;28;20059;-74
2024/03/05 04:48:26;;;;;;;48.97;19.85;;;;;;;6.70;100.00;99336.53;6312421;28;20048;-73
2024/03/05 04:51:27;;;;;;;43.72;19.65;;;;;;;6.64;100.00;99330.75;6309475;28;20048;-73
2024/03/05 04:54:29;;;;;;;32.45;13.15;;;;;;;6.61;100.00;99338.72;6311933;28;20057;-73
2024/03/05 04:57:30;;;;;;;23.95;11.82;;;;;;;6.60;100.00;99338.78;6313458;28;20041;-74
2024/03/05 05:00:31;;;;;;;24.02;12.10;;;;;;;6.57;100.00;99338.94;6306378;28;20051;-74
2024/03/05 05:03:32;;;;;;;23.58;12.18;;;;;;;6.53;100.00;99343.50;6301238;28;20481;-74
2024/03/05 05:06:35;;;;;;;31.35;13.65;;;;;;;6.39;100.00;99333.06;6313082;28;20194;-73
2024/03/05 05:09:36;;;;;;;28.92;13.07;;;;;;;6.43;100.00;99348.34;6315571;28;20143;-74
2024/03/05 05:12:39;;;;;;;27.10;13.63;;;;;;;6.42;100.00;99341.50;6304151;28;20044;-74
2024/03/05 05:15:40;;;;;;;;;;;;;;;6.38;100.00;99349.50;6304567;28;20128;-73
2024/03/05 05:18:40;;;;;;;28.83;12.40;;;;;;;6.32;100.00;99349.84;6316197;28;19919;-73
2024/03/05 05:21:45;;;;;;;23.42;11.48;;;;;;;6.20;100.00;99356.56;6304629;28;20097;-74
2024/03/05 05:24:46;;;;;;;23.23;11.32;;;;;;;6.17;100.00;99351.53;6291354;28;20558;-73
2024/03/05 05:27:49;;;;;;;24.48;11.70;;;;;;;6.12;100.00;99349.19;6322462;28;20142;-74
2024/03/05 05:30:52;;;;;;;29.42;11.73;;;;;;;6.18;100.00;99348.84;6303454;28;20514;-73
2024/03/05 05:33:57;;;;;;;25.17;11.65;;;;;;;6.21;100.00;99353.03;6308139;28;20044;-73
2024/03/05 05:36:58;;;;;;;21.25;11.20;;;;;;;6.24;100.00;99351.09;6309914;28;20492;-73
2024/03/05 05:39:59;;;;;;;18.17;11.35;;;;;;;6.31;100.00;99359.38;6301460;28;20097;-68
2024/03/05 05:43:00;;;;;;;28.73;11.32;;;;;;;6.34;100.00;99350.59;6320242;28;20052;-68
2024/03/05 05:46:04;;;;;;;17.48;9.48;;;;;;;6.38;100.00;99357.28;6315575;28;20055;-68
2024/03/05 05:49:10;;;;;;;17.85;9.07;;;;;;;6.45;100.00;99356.88;6314031;28;20066;-67
2024/03/05 05:52:11;;;;;;;18.52;10.43;;;;;;;6.48;100.00;99361.03;6313397;28;20048;-68
2024/03/05 05:55:19;;;;;;;20.48;9.70;;;;;;;6.60;100.00;99362.13;6296419;28;20079;-68
2024/03/05 05:58:20;;;;;;;17.52;10.27;;;;;;;6.67;100.00;99363.44;6291670;28;20140;-68
2024/03/05 06:01:21;;;;;;;16.05;9.57;;;;;;;6.74;100.00;99362.19;6291456;28;20055;-68
2024/03/05 06:04:22;;;;;;;50.00;25.00;;;;;;;6.88;100.00;99363.16;6294762;28;20059;-69
2024/03/05 06:07:24;;;;;;;123.15;44.33;;;;;;;6.93;100.00;99361.97;6294624;28;20489;-74
2024/03/05 06:10:25;;;;;;;59.93;26.17;;;;;;;7.06;100.00;99362.97;6294573;28;20051;-74
2024/03/05 06:13:29;;;;;;;30.58;16.85;;;;;;;7.16;100.00;99367.59;6294347;28;20058;-74
2024/03/05 06:16:31;;;;;;;33.20;15.18;;;;;;;7.31;100.00;99379.72;6296039;28;20063;-74
2024/03/05 06:19:32;;;;;;;25.10;11.48;;;;;;;7.41;100.00;99380.84;6296596;28;20098;-68
2024/03/05 06:22:33;;;;;;;22.48;10.80;;;;;;;7.58;100.00;99379.00;6296678;28;20052;-68
2024/03/05 06:25:34;;;;;;;21.00;11.65;;;;;;;7.67;100.00;99375.84;6295434;28;20055;-73
2024/03/05 06:28:37;;;;;;;29.02;11.93;;;;;;;7.86;100.00;99385.97;6296434;28;20053;-74
2024/03/05 06:31:38;;;;;;;30.38;15.40;;;;;;;8.06;100.00;99380.41;6295327;28;20059;-73
2024/03/05 06:34:39;;;;;;;34.17;15.10;;;;;;;8.21;100.00;99381.22;6296500;28;20440;-74
2024/03/05 06:37:41;;;;;;;38.67;15.73;;;;;;;8.43;100.00;99385.94;6296140;28;20063;-74
2024/03/05 06:40:41;;;;;;;32.00;14.35;;;;;;;8.63;100.00;99381.25;6296540;28;20036;-74
2024/03/05 06:43:44;;;;;;;25.38;13.30;;;;;;;8.93;100.00;99388.03;6296275;28;20048;-68
2024/03/05 06:46:49;;;;;;;27.42;12.32;;;;;;;9.21;100.00;99387.88;6295005;28;20083;-68
2024/03/05 06:49:54;;;;;;;31.20;13.98;;;;;;;9.46;100.00;99387.09;6296679;28;20052;-69
2024/03/05 06:59:33;;;;;;;17.40;10.13;;;;;;;10.31;100.00;99372.66;6296135;28;20048;-69
2024/03/05 07:02:34;;;;;;;17.40;9.90;;;;;;;10.48;100.00;99378.38;6294861;28;20154;-69
2024/03/05 07:17:58;;;;;;;47.30;20.38;;;;;;;11.57;100.00;99393.03;6394801;27;20385;-69
2024/03/05 07:21:00;;;;;;;30.80;16.73;;;;;;;11.78;100.00;99374.06;6394820;27;20470;-69
2024/03/05 07:24:01;;;;;;;29.42;12.75;;;;;;;11.99;100.00;99372.41;6393520;27;20043;-69
2024/03/05 07:27:02;;;;;;;24.60;11.52;;;;;;;12.11;100.00;99378.47;6393538;27;20050;-68
2024/03/05 07:30:04;;;;;;;25.08;12.65;;;;;;;12.19;97.56;99373.47;6394747;27;20054;-68
2024/03/05 07:33:05;;;;;;;23.88;12.63;;;;;;;12.42;96.63;99382.13;6394445;27;20391;-69
2024/03/05 07:36:09;;;;;;;19.83;11.13;;;;;;;12.48;94.05;99379.03;6392418;27;20039;-69
2024/03/05 07:39:11;;;;;;;24.65;11.13;;;;;;;12.66;92.92;99384.56;6393983;27;20115;-69
2024/03/05 07:42:12;;;;;;;25.77;11.00;;;;;;;12.80;91.93;99393.91;6393063;27;20043;-75
2024/03/05 07:45:19;;;;;;;22.88;12.70;;;;;;;12.93;89.13;99390.31;6392540;27;20466;-75
2024/03/05 07:48:20;;;;;;;25.05;11.30;;;;;;;13.18;88.58;99378.66;6393003;27;20047;-74
2024/03/05 07:51:21;;;;;;;15.57;8.45;;;;;;;13.16;86.67;99386.66;6392488;27;20058;-75
2024/03/05 07:54:22;;;;;;;13.63;7.50;;;;;;;13.44;84.57;99387.00;6392795;27;20054;-75
2024/03/05 07:57:23;;;;;;;14.38;7.00;;;;;;;13.71;81.18;99391.72;6392483;27;20130;-75
2024/03/05 08:00:24;;;;;;;16.70;6.80;;;;;;;13.89;81.37;99384.06;6392772;27;20043;-75
2024/03/05 08:03:27;;;;;;;10.77;6.32;;;;;;;14.07;78.33;99386.91;6391933;27;20047;-75
2024/03/05 08:06:30;;;;;;;30.25;7.75;;;;;;;14.09;78.27;99388.44;6393737;27;20043;-75
2024/03/05 08:09:31;;;;;;;11.18;5.90;;;;;;;14.20;76.35;99389.31;6393621;27;20051;-75
2024/03/05 08:12:31;;;;;;;21.70;6.68;;;;;;;14.54;75.57;99389.84;6392485;27;20080;-75
2024/03/05 08:15:33;;;;;;;11.32;5.15;;;;;;;14.80;73.48;99397.22;6393504;27;20050;-75
2024/03/05 08:18:34;;;;;;;14.27;5.18;;;;;;;14.83;72.26;99396.94;6378229;27;20047;-69
2024/03/05 08:21:35;;;;;;;14.32;5.32;;;;;;;15.05;70.22;99395.84;6374979;27;20055;-69
2024/03/05 08:24:35;;;;;;;9.05;5.03;;;;;;;15.12;71.92;99399.59;6375414;27;20126;-69
2024/03/05 08:27:39;;;;;;;12.88;4.97;;;;;;;14.88;68.64;99405.22;6376103;27;20051;-69
2024/03/05 08:30:42;;;;;;;10.85;4.78;;;;;;;15.06;68.81;99410.66;6376035;27;20054;-69
2024/03/05 08:33:44;;;;;;;12.32;5.53;;;;;;;15.26;70.32;99411.47;6375811;27;20444;-69
2024/03/05 08:36:45;;;;;;;9.20;5.25;;;;;;;15.19;68.83;99400.69;6375848;27;20473;-69
2024/03/05 08:39:50;;;;;;;9.00;5.22;;;;;;;15.20;66.41;99412.88;6375987;27;20051;-69
2024/03/05 08:42:56;;;;;;;11.52;5.05;;;;;;;15.31;68.41;99412.69;6374292;27;20483;-69
2024/03/05 08:45:57;;;;;;;9.07;5.05;;;;;;;15.23;65.92;99402.06;6374606;27;20130;-69
2024/03/05 08:49:00;;;;;;;10.45;4.53;;;;;;;15.27;65.49;99399.97;6375633;27;20131;-69
2024/03/05 08:52:03;;;;;;;10.90;4.78;;;;;;;15.45;63.95;99410.63;6375396;27;20507;-69
2024/03/05 08:55:10;;;;;;;22.52;4.90;;;;;;;15.59;62.08;99404.13;6375455;27;20051;-69
2024/03/05 08:58:11;;;;;;;16.05;4.68;;;;;;;15.67;61.97;99398.97;6375316;27;20138;-69
2024/03/05 09:01:12;;;;;;;10.80;4.47;;;;;;;15.73;58.55;99408.09;6374286;27;20057;-69
2024/03/05 09:04:13;;;;;;;8.73;4.78;;;;;;;16.16;60.26;99398.81;6373863;27;20058;-69
2024/03/05 09:07:17;;;;;;;16.63;5.35;;;;;;;16.52;59.22;99390.03;6375271;27;20043;-75
2024/03/05 09:10:18;;;;;;;13.50;5.35;;;;;;;16.47;58.22;99399.34;6374938;27;20424;-74
2024/03/05 09:13:20;;;;;;;8.20;4.57;;;;;;;16.49;58.35;99398.25;6375223;27;20108;-75
2024/03/05 09:16:21;;;;;;;18.00;5.20;;;;;;;16.56;58.20;99405.56;6374834;27;20557;-75
2024/03/05 09:19:23;;;;;;;15.88;5.97;;;;;;;16.80;56.80;99405.81;6373552;27;20053;-75
2024/03/05 09:22:24;;;;;;;9.25;4.00;;;;;;;16.87;54.65;99401.63;6374703;27;20051;-74
2024/03/05 09:25:27;;;;;;;10.65;5.07;;;;;;;16.91;56.88;99402.97;6374257;27;20098;-75
2024/03/05 09:28:28;;;;;;;10.95;4.40;;;;;;;16.67;56.15;99402.69;6372395;27;20117;-75
2024/03/05 09:31:30;;;;;;;10.18;4.30;;;;;;;17.08;57.07;99401.31;6373894;27;20111;-75
2024/03/05 09:34:33;;;;;;;13.23;5.43;;;;;;;17.25;56.89;99410.19;6373087;27;20051;-75
2024/03/05 09:37:35;;;;;;;9.70;4.20;;;;;;;17.15;55.90;99417.34;6373998;27;20051;-74
2024/03/05 09:40:36;;;;;;;10.38;4.93;;;;;;;17.00;54.41;99418.88;6374411;27;20495;-75
2024/03/05 09:43:41;;;;;;;13.60;4.82;;;;;;;17.15;55.72;99422.63;6373762;27;20069;-75
2024/03/05 09:46:45;;;;;;;12.82;5.75;;;;;;;17.25;56.46;99427.81;6373886;27;20088;-75
2024/03/05 09:49:47;;;;;;;7.40;4.15;;;;;;;17.53;54.24;99429.38;6373688;27;20051;-75
2024/03/05 09:52:48;;;;;;;11.35;4.78;;;;;;;17.25;54.61;99428.63;6372607;27;20055;-74
2024/03/05 09:55:52;;;;;;;9.80;4.80;;;;;;;17.51;54.05;99426.06;6373407;27;20136;-74
2024/03/05 09:58:53;;;;;;;11.88;5.10;;;;;;;18.03;54.11;99424.44;6373717;27;20043;-74
2024/03/05 10:01:54;;;;;;;15.88;4.78;;;;;;;18.16;54.87;99427.50;6372348;27;20054;-74
2024/03/05 10:04:56;;;;;;;12.32;5.47;;;;;;;18.17;53.78;99429.13;6371907;27;20047;-74
2024/03/05 10:07:57;;;;;;;12.50;5.40;;;;;;;18.06;53.71;99435.53;6372273;27;20051;-74
2024/03/05 10:11:05;;;;;;;8.63;4.53;;;;;;;18.41;53.82;99432.84;6371967;27;20200;-74
2024/03/05 10:14:08;;;;;;;9.00;5.20;;;;;;;18.40;51.25;99429.41;6371772;27;20540;-75
2024/03/05 10:17:08;;;;;;;11.07;5.20;;;;;;;18.70;52.79;99428.00;6372863;27;20099;-75
2024/03/05 10:20:26;;;;;;;15.33;5.67;;;;;;;18.52;53.56;99427.31;6373309;27;20137;-74
2024/03/05 10:23:28;;;;;;;8.82;5.22;;;;;;;18.15;53.06;99428.47;6372841;27;20477;-75
2024/03/05 10:26:30;;;;;;;10.87;5.57;;;;;;;18.72;53.04;99425.22;6372870;27;20501;-74
2024/03/05 10:29:37;;;;;;;14.88;5.75;;;;;;;18.37;54.17;99426.28;6371664;27;20506;-74
2024/03/05 10:32:40;;;;;;;12.30;6.38;;;;;;;18.37;53.75;99424.44;6372984;27;20051;-75
2024/03/05 10:35:41;;;;;;;13.70;5.65;;;;;;;18.58;52.05;99424.03;6372465;27;20485;-75
2024/03/05 10:38:42;;;;;;;13.65;5.45;;;;;;;18.05;53.01;99431.22;6372925;27;20047;-75
2024/03/05 10:41:48;;;;;;;13.65;5.15;;;;;;;18.11;51.41;99424.47;6372479;27;20088;-74
2024/03/05 10:44:51;;;;;;;13.38;5.57;;;;;;;18.16;50.23;99414.28;6372641;27;20137;-75
2024/03/05 10:47:53;;;;;;;10.80;4.30;;;;;;;18.60;49.37;99418.56;6372549;27;20051;-74
2024/03/05 10:50:59;;;;;;;7.78;4.15;;;;;;;18.79;50.92;99414.84;6372756;27;20050;-74
2024/03/05 10:54:02;;;;;;;7.88;3.80;;;;;;;19.23;48.92;99419.84;6371218;27;20047;-75
2024/03/05 10:57:06;;;;;;;10.93;4.28;;;;;;;18.57;47.75;99421.53;6370995;27;20039;-74
2024/03/05 11:00:12;;;;;;;8.45;3.70;;;;;;;18.59;48.69;99417.72;6372394;27;20078;-75
2024/03/05 11:03:23;;;;;;;9.55;4.15;;;;;;;18.86;49.73;99408.75;6370991;27;20134;-74
2024/03/05 11:06:26;;;;;;;8.35;4.55;;;;;;;18.69;52.04;99399.09;6372385;27;20039;-74
2024/03/05 11:09:28;;;;;;;10.93;4.07;;;;;;;18.98;47.54;99405.78;6370938;28;20051;-74
2024/03/05 11:12:29;;;;;;;7.05;3.65;;;;;;;18.67;46.69;99403.72;6371144;28;20130;-75
2024/03/05 11:15:31;;;;;;;9.35;3.70;;;;;;;18.83;49.38;99400.31;6371867;27;20051;-74
2024/03/05 11:18:37;;;;;;;7.63;3.72;;;;;;;19.27;48.53;99406.16;6371067;28;20051;-74
2024/03/05 11:21:39;;;;;;;8.50;3.58;;;;;;;18.83;47.07;99395.88;6372041;27;20051;-75
2024/03/05 11:24:40;;;;;;;;;;;;;;;19.39;48.15;99401.34;6371237;28;20410;-74
2024/03/05 11:27:46;;;;;;;10.25;3.47;;;;;;;19.82;47.03;99404.63;6371914;27;20359;-75
2024/03/05 11:30:47;;;;;;;7.93;3.97;;;;;;;19.75;47.78;99392.22;6370773;28;20487;-75
2024/03/05 11:34:03;;;;;;;8.27;4.40;;;;;;;19.02;48.63;99399.19;6370568;28;20051;-74
2024/03/05 11:37:08;;;;;;;10.60;4.40;;;;;;;19.71;48.43;99397.03;6370661;28;20080;-75
2024/03/05 11:40:11;;;;;;;8.20;4.05;;;;;;;19.19;49.81;99384.16;6371945;27;20051;-75
2024/03/05 11:43:36;;;;;;;8.00;3.90;;;;;;;19.42;48.14;99386.97;6371005;28;20062;-75
2024/03/05 11:46:44;;;;;;;8.93;4.38;;;;;;;18.85;47.51;99385.94;6370467;28;20508;-74
2024/03/05 11:49:45;;;;;;;9.20;3.95;;;;;;;19.17;46.72;99383.50;6371869;27;20047;-75
2024/03/05 11:52:46;;;;;;;9.85;4.20;;;;;;;19.38;46.07;99385.66;6373923;27;20053;-74
2024/03/05 11:55:51;;;;;;;8.43;3.88;;;;;;;19.44;47.77;99385.00;6376681;27;20043;-75
2024/03/05 11:58:54;;;;;;;13.35;4.00;;;;;;;19.79;46.80;99382.94;6376577;27;20047;-75
2024/03/05 12:01:58;;;;;;;10.65;3.58;;;;;;;19.52;48.01;99380.50;6376617;27;20047;-74
2024/03/05 12:05:05;;;;;;;8.45;4.60;;;;;;;19.51;47.00;99378.84;6376295;27;20050;-75
2024/03/05 12:08:07;;;;;;;8.90;4.07;;;;;;;19.32;48.73;99379.19;6376145;27;20483;-74
2024/03/05 12:11:08;;;;;;;5.28;3.33;;;;;;;19.34;46.55;99374.56;6375073;27;20043;-75
2024/03/05 12:14:09;;;;;;;9.60;3.58;;;;;;;19.53;45.38;99371.56;6376040;27;20047;-75
2024/03/05 12:17:12;;;;;;;10.35;3.70;;;;;;;19.40;46.57;99376.56;6374503;27;20058;-75
2024/03/05 12:20:19;;;;;;;9.45;3.88;;;;;;;19.62;47.00;99367.09;6375902;27;20047;-75
2024/03/05 12:23:21;;;;;;;9.68;4.13;;;;;;;19.76;46.23;99364.78;6374850;27;20107;-75
2024/03/05 12:26:22;;;;;;;10.38;3.88;;;;;;;19.06;45.74;99366.97;6374419;27;20087;-75
2024/03/05 12:29:42;;;;;;;7.93;3.83;;;;;;;19.45;47.27;99365.47;6374649;27;20054;-74
2024/03/05 12:32:46;;;;;;;14.30;4.20;;;;;;;19.67;47.06;99367.41;6375620;27;20058;-75
2024/03/05 12:35:47;;;;;;;7.57;3.97;;;;;;;19.44;48.39;99364.66;6374171;27;20406;-74
2024/03/05 12:38:49;;;;;;;17.05;4.28;;;;;;;19.78;47.15;99368.91;6374367;27;20482;-75
2024/03/05 12:42:03;;;;;;;6.65;3.72;;;;;;;19.25;46.04;99372.91;6375523;27;20433;-75
2024/03/05 12:45:06;;;;;;;8.10;3.90;;;;;;;19.70;46.76;99360.94;6375720;27;20065;-75
2024/03/05 12:48:08;;;;;;;10.80;4.03;;;;;;;19.92;45.15;99372.66;6374214;27;20130;-75
2024/03/05 12:51:14;;;;;;;7.03;3.80;;;;;;;19.47;44.04;99368.75;6375227;27;20413;-75
2024/03/05 12:54:16;;;;;;;7.63;3.65;;;;;;;19.25;47.08;99368.47;6375169;27;20426;-75
2024/03/05 12:57:24;;;;;;;;;;;;;;;19.48;46.48;99365.16;6374204;27;20051;-75
2024/03/05 13:00:25;;;;;;;8.18;3.65;;;;;;;19.52;46.58;99372.56;6373962;27;19923;-74
2024/03/05 13:03:26;;;;;;;6.70;3.00;;;;;;;19.52;45.07;99367.28;6373638;27;20049;-71
2024/03/05 13:06:27;;;;;;;13.20;3.97;;;;;;;19.80;43.33;99364.25;6373614;27;20039;-71
2024/03/05 13:09:27;;;;;;;12.57;3.88;;;;;;;20.09;44.06;99358.34;6372501;27;20051;-74
2024/03/05 13:12:29;;;;;;;8.55;3.17;;;;;;;20.06;41.08;99357.91;6373347;27;20047;-75
2024/03/05 13:15:29;;;;;;;5.40;3.10;;;;;;;20.22;40.98;99355.19;6374530;27;20111;-74
2024/03/05 13:18:30;;;;;;;4.85;2.58;;;;;;;20.35;40.51;99357.25;6374489;27;20407;-71
2024/03/05 13:21:33;;;;;;;6.63;2.90;;;;;;;20.33;39.92;99353.97;6374545;27;20074;-70
2024/03/05 13:24:34;;;;;;;7.15;3.25;;;;;;;20.28;41.98;99353.63;6374351;27;20251;-70
2024/03/05 13:27:36;;;;;;;6.57;3.60;;;;;;;19.58;43.15;99362.28;6373262;27;20054;-71
2024/03/05 13:30:36;;;;;;;7.05;2.80;;;;;;;19.76;44.12;99349.72;6373342;27;20418;-69
2024/03/05 13:33:37;;;;;;;8.10;3.33;;;;;;;19.89;42.35;99365.91;6374464;27;20138;-70
2024/03/05 13:36:38;;;;;;;7.47;2.93;;;;;;;19.37;42.62;99357.53;6374121;27;20039;-75
2024/03/05 13:39:43;;;;;;;9.38;2.90;;;;;;;19.80;41.91;99364.25;6373169;27;20073;-75
2024/03/05 13:42:45;;;;;;;6.35;3.10;;;;;;;19.84;41.69;99359.47;6373925;27;20567;-74
2024/03/05 13:45:49;;;;;;;10.18;3.47;;;;;;;19.81;42.35;99357.97;6372598;27;20506;-74
2024/03/05 13:48:49;;;;;;;7.53;3.10;;;;;;;19.63;42.00;99363.44;6372511;27;20421;-74
2024/03/05 13:51:51;;;;;;;5.10;3.33;;;;;;;19.66;43.64;99362.28;6372484;27;20047;-74
2024/03/05 13:54:52;;;;;;;7.05;3.03;;;;;;;19.47;42.61;99361.66;6373501;27;20391;-74
2024/03/05 13:57:52;;;;;;;9.13;3.67;;;;;;;19.44;41.88;99364.66;6372258;27;20067;-74
2024/03/05 14:00:53;;;;;;;8.73;3.10;;;;;;;19.64;41.49;99367.75;6373737;27;20073;-74
2024/03/05 14:03:55;;;;;;;8.13;3.10;;;;;;;19.38;42.12;99362.66;6372245;27;20055;-74
2024/03/05 14:06:56;;;;;;;;;;;;;;;19.17;43.27;99372.91;6372665;27;20126;-74
2024/03/05 14:09:57;;;;;;;4.72;2.67;;;;;;;19.23;43.66;99372.25;6372080;27;19919;-74
2024/03/05 14:12:59;;;;;;;11.05;2.85;;;;;;;19.38;43.04;99372.44;6373144;27;20051;-75
2024/03/05 14:16:00;;;;;;;;;;;;;;;19.22;42.83;99371.44;6372983;27;20094;-74
2024/03/05 14:19:03;;;;;;;7.53;3.17;;;;;;;19.00;43.50;99369.44;6372877;27;20009;-74
2024/03/05 14:22:04;;;;;;;5.88;2.72;;;;;;;18.99;43.22;99373.91;6371955;27;20483;-74
2024/03/05 14:25:06;;;;;;;7.47;3.13;;;;;;;18.75;43.87;99372.03;6372935;27;20051;-75
2024/03/05 14:28:11;;;;;;;7.38;3.42;;;;;;;18.79;43.74;99369.94;6372817;27;20054;-74